createdAt,value
2023-02-11T00:01:33.585Z,7.72
2023-02-11T00:04:01.013Z,8.00
2023-02-11T00:06:28.876Z,7.53
2023-02-11T00:08:57.677Z,7.43
2023-02-11T00:11:26.542Z,7.93
2023-02-11T00:13:53.094Z,9.15
2023-02-11T00:16:20.763Z,8.27
2023-02-11T00:18:48.116Z,7.47
2023-02-11T00:21:20.454Z,8.60
2023-02-11T00:23:47.413Z,7.80
2023-02-11T00:26:40.087Z,8.13
2023-02-11T00:29:06.726Z,7.18
2023-02-11T00:31:33.936Z,7.72
2023-02-11T00:34:00.639Z,8.88
2023-02-11T00:36:29.157Z,8.45
2023-02-11T00:38:56.964Z,7.05
2023-02-11T00:41:23.825Z,7.65
2023-02-11T00:43:50.699Z,8.02
2023-02-11T00:46:17.351Z,6.80
2023-02-11T00:48:44.192Z,7.75
2023-02-11T00:51:11.726Z,8.45
2023-02-11T00:53:38.646Z,9.40
2023-02-11T00:56:05.836Z,7.82
2023-02-11T00:58:32.469Z,7.57
2023-02-11T01:00:59.097Z,8.88
2023-02-11T01:03:26.112Z,8.50
2023-02-11T01:05:52.984Z,9.07
2023-02-11T01:08:21.211Z,8.23
2023-02-11T01:10:58.635Z,8.73
2023-02-11T01:13:26.124Z,9.07
2023-02-11T01:15:53.269Z,6.95
2023-02-11T01:18:39.564Z,9.80
2023-02-11T01:21:06.491Z,10.13
2023-02-11T01:23:33.454Z,7.35
2023-02-11T01:26:00.258Z,7.55
2023-02-11T01:28:29.751Z,8.75
2023-02-11T01:30:56.877Z,8.63
2023-02-11T01:33:23.755Z,7.13
2023-02-11T01:35:50.966Z,6.93
2023-02-11T01:38:22.816Z,7.90
2023-02-11T01:40:56.784Z,8.43
2023-02-11T01:43:24.126Z,8.70
2023-02-11T01:45:59.344Z,7.20
2023-02-11T01:48:30.053Z,6.45
2023-02-11T01:51:04.313Z,7.78
2023-02-11T01:53:51.527Z,6.20
2023-02-11T01:56:37.871Z,6.32
2023-02-11T01:59:10.671Z,8.32
2023-02-11T02:01:39.473Z,7.07
2023-02-11T02:04:06.859Z,5.10
2023-02-11T02:06:43.501Z,6.47
2023-02-11T02:09:20.345Z,5.78
2023-02-11T02:11:46.921Z,6.15
2023-02-11T02:14:13.702Z,6.80
2023-02-11T02:16:40.357Z,6.80
2023-02-11T02:19:17.277Z,6.00
2023-02-11T02:22:14.293Z,5.00
2023-02-11T02:25:10.164Z,5.40
2023-02-11T02:27:45.882Z,7.82
2023-02-11T02:30:24.621Z,6.70
2023-02-11T02:33:22.386Z,8.00
2023-02-11T02:36:08.461Z,6.63
2023-02-11T02:39:00.240Z,5.90
2023-02-11T02:41:29.780Z,7.65
2023-02-11T02:43:56.348Z,5.45
2023-02-11T02:46:24.583Z,6.68
2023-02-11T02:48:52.841Z,6.47
2023-02-11T02:51:43.706Z,7.03
2023-02-11T02:54:22.370Z,6.32
2023-02-11T02:56:58.922Z,5.72
2023-02-11T02:59:28.955Z,6.38
2023-02-11T03:02:35.354Z,6.45
2023-02-11T03:05:12.494Z,5.72
2023-02-11T03:07:49.230Z,5.93
2023-02-11T03:10:21.425Z,4.55
2023-02-11T03:12:48.644Z,4.65
2023-02-11T03:15:18.000Z,4.82
2023-02-11T03:17:46.340Z,3.92
2023-02-11T03:20:15.027Z,5.03
2023-02-11T03:22:48.885Z,4.75
2023-02-11T03:25:15.497Z,4.03
2023-02-11T03:28:05.264Z,6.03
2023-02-11T03:30:39.282Z,4.97
2023-02-11T03:33:11.705Z,4.28
2023-02-11T03:35:50.671Z,6.68
2023-02-11T03:38:29.145Z,3.50
2023-02-11T03:40:56.736Z,4.70
2023-02-11T03:43:35.024Z,4.43
2023-02-11T03:46:02.989Z,5.10
2023-02-11T03:48:40.594Z,4.25
2023-02-11T03:51:08.592Z,5.88
2023-02-11T03:53:36.310Z,3.58
2023-02-11T03:56:07.833Z,3.63
2023-02-11T03:58:34.373Z,3.50
2023-02-11T04:01:02.458Z,4.35
2023-02-11T04:03:29.261Z,4.78
2023-02-11T04:05:55.933Z,3.63
2023-02-11T04:08:22.446Z,3.83
2023-02-11T04:10:48.989Z,4.03
2023-02-11T04:13:15.543Z,4.50
2023-02-11T04:15:42.152Z,5.18
2023-02-11T04:18:08.714Z,3.53
2023-02-11T04:20:35.283Z,5.68
2023-02-11T04:23:01.877Z,4.50
2023-02-11T04:25:28.510Z,4.78
2023-02-11T04:27:57.279Z,6.38
2023-02-11T04:30:25.269Z,5.50
2023-02-11T04:32:51.827Z,4.63
2023-02-11T04:35:18.443Z,5.70
2023-02-11T04:37:45.085Z,4.45
2023-02-11T04:40:12.086Z,4.18
2023-02-11T04:42:38.669Z,5.18
2023-02-11T04:45:06.413Z,3.85
2023-02-11T04:47:32.949Z,6.53
2023-02-11T04:50:01.879Z,7.30
2023-02-11T04:52:28.507Z,5.70
2023-02-11T04:54:55.073Z,4.03
2023-02-11T04:57:21.656Z,7.43
2023-02-11T04:59:49.055Z,5.53
2023-02-11T05:02:15.649Z,5.25
2023-02-11T05:04:42.163Z,6.03
2023-02-11T05:07:08.709Z,5.38
2023-02-11T05:09:35.265Z,5.32
2023-02-11T05:12:01.941Z,4.25
2023-02-11T05:14:28.575Z,4.28
2023-02-11T05:16:55.101Z,4.47
2023-02-11T05:19:21.755Z,6.07
2023-02-11T05:22:02.251Z,4.60
2023-02-11T05:24:31.542Z,4.68
2023-02-11T05:26:58.100Z,4.82
2023-02-11T05:29:24.718Z,5.10
2023-02-11T05:31:51.298Z,3.65
2023-02-11T05:34:17.928Z,4.93
2023-02-11T05:36:44.483Z,5.82
2023-02-11T05:39:11.201Z,3.88
2023-02-11T05:41:38.315Z,4.80
2023-02-11T05:44:04.954Z,4.78
2023-02-11T05:46:31.595Z,5.63
2023-02-11T05:48:58.495Z,5.32
2023-02-11T05:51:25.449Z,5.40
2023-02-11T05:53:52.927Z,6.10
2023-02-11T05:56:19.501Z,4.70
2023-02-11T05:58:46.039Z,4.57
2023-02-11T06:01:12.682Z,4.53
2023-02-11T06:03:39.208Z,5.90
2023-02-11T06:06:10.529Z,4.68
2023-02-11T06:08:39.188Z,4.73
2023-02-11T06:11:06.020Z,5.72
2023-02-11T06:13:32.549Z,5.35
2023-02-11T06:16:00.626Z,7.45
2023-02-11T06:18:27.397Z,5.85
2023-02-11T06:20:54.102Z,4.80
2023-02-11T06:23:20.924Z,5.22
2023-02-11T06:25:47.699Z,4.82
2023-02-11T06:28:14.457Z,5.50
2023-02-11T06:30:41.357Z,6.47
2023-02-11T06:33:07.890Z,6.70
2023-02-11T06:35:35.426Z,5.97
2023-02-11T06:38:02.051Z,5.38
2023-02-11T06:40:28.684Z,4.00
2023-02-11T06:43:02.835Z,5.20
2023-02-11T06:45:29.428Z,5.88
2023-02-11T06:47:56.106Z,7.10
2023-02-11T06:50:22.809Z,5.55
2023-02-11T06:52:49.412Z,5.22
2023-02-11T06:55:16.077Z,3.92
2023-02-11T06:57:42.842Z,5.03
2023-02-11T07:00:10.172Z,6.03
2023-02-11T07:02:36.847Z,4.53
2023-02-11T07:05:04.942Z,5.22
2023-02-11T07:07:34.126Z,4.30
2023-02-11T07:10:03.102Z,5.88
2023-02-11T07:12:30.514Z,5.57
2023-02-11T07:14:57.419Z,4.78
2023-02-11T07:17:24.005Z,5.07
2023-02-11T07:19:50.590Z,5.75
2023-02-11T07:22:17.203Z,5.22
2023-02-11T07:24:43.996Z,7.10
2023-02-11T07:27:10.694Z,5.53
2023-02-11T07:29:37.557Z,7.63
2023-02-11T07:32:04.288Z,6.20
2023-02-11T07:34:31.101Z,6.28
2023-02-11T07:36:58.886Z,5.80
2023-02-11T07:39:28.412Z,6.45
2023-02-11T07:41:55.317Z,5.18
2023-02-11T07:44:21.935Z,6.45
2023-02-11T07:46:49.358Z,6.88
2023-02-11T07:49:17.827Z,8.40
2023-02-11T07:51:44.823Z,7.43
2023-02-11T07:54:11.765Z,9.05
2023-02-11T07:56:38.313Z,6.68
2023-02-11T07:59:04.926Z,9.50
2023-02-11T08:01:31.899Z,7.45
2023-02-11T08:04:01.102Z,7.53
2023-02-11T08:06:30.261Z,9.80
2023-02-11T08:08:57.125Z,9.98
2023-02-11T08:11:26.206Z,12.88
2023-02-11T08:13:53.948Z,14.35
2023-02-11T08:16:30.125Z,13.73
2023-02-11T08:18:59.378Z,10.70
2023-02-11T08:21:26.171Z,8.95
2023-02-11T08:23:55.680Z,9.85
2023-02-11T08:26:24.556Z,8.35
2023-02-11T08:28:52.920Z,9.88
2023-02-11T08:31:26.604Z,9.30
2023-02-11T08:33:54.872Z,8.40
2023-02-11T08:36:23.375Z,7.13
2023-02-11T08:38:50.447Z,6.72
2023-02-11T08:41:17.403Z,7.60
2023-02-11T08:43:45.204Z,5.85
2023-02-11T08:46:14.400Z,8.13
2023-02-11T08:48:41.619Z,7.25
2023-02-11T08:51:10.027Z,6.40
2023-02-11T08:53:37.254Z,7.35
2023-02-11T08:56:04.124Z,5.53
2023-02-11T08:58:30.839Z,7.35
2023-02-11T09:00:57.725Z,9.73
2023-02-11T09:03:24.579Z,6.80
2023-02-11T09:05:53.432Z,5.75
2023-02-11T09:08:21.068Z,5.80
2023-02-11T09:10:48.000Z,4.57
2023-02-11T09:13:14.895Z,4.53
2023-02-11T09:15:45.471Z,5.20
2023-02-11T09:18:12.037Z,5.15
2023-02-11T09:20:38.806Z,4.70
2023-02-11T09:23:05.411Z,3.88
2023-02-11T09:25:32.200Z,4.00
2023-02-11T09:28:01.623Z,3.78
2023-02-11T09:30:28.401Z,3.55
2023-02-11T09:32:55.062Z,3.13
2023-02-11T09:35:21.767Z,3.10
2023-02-11T09:37:48.370Z,4.70
2023-02-11T09:40:15.658Z,3.78
2023-02-11T09:42:53.108Z,4.95
2023-02-11T09:45:23.398Z,3.65
2023-02-11T09:48:11.069Z,3.13
2023-02-11T09:50:42.144Z,3.13
2023-02-11T09:53:25.267Z,3.15
2023-02-11T09:55:57.293Z,3.90
2023-02-11T10:01:13.958Z,3.38
2023-02-11T10:03:47.455Z,2.00
2023-02-11T10:06:17.011Z,2.17
2023-02-11T10:09:05.672Z,2.67
2023-02-11T10:11:57.465Z,2.25
2023-02-11T10:14:42.817Z,1.98
2023-02-11T10:17:18.304Z,2.58
2023-02-11T10:20:17.299Z,1.92
2023-02-11T10:22:50.531Z,1.80
2023-02-11T10:25:26.345Z,3.83
2023-02-11T10:27:55.505Z,5.75
2023-02-11T10:30:35.187Z,3.72
2023-02-11T10:33:19.610Z,4.82
2023-02-11T10:35:46.435Z,5.05
2023-02-11T10:38:13.333Z,4.03
2023-02-11T10:40:40.859Z,4.95
2023-02-11T10:43:15.667Z,4.03
2023-02-11T10:45:52.524Z,4.15
2023-02-11T10:48:49.594Z,3.53
2023-02-11T10:51:28.436Z,3.35
2023-02-11T10:54:04.099Z,3.28
2023-02-11T10:56:33.159Z,3.92
2023-02-11T10:59:02.282Z,4.05
2023-02-11T11:01:44.182Z,3.78
2023-02-11T11:04:33.715Z,2.85
2023-02-11T11:07:14.584Z,3.50
2023-02-11T11:09:52.389Z,2.60
2023-02-11T11:12:35.255Z,2.40
2023-02-11T11:15:13.555Z,2.53
2023-02-11T11:17:40.771Z,3.38
2023-02-11T11:20:20.729Z,3.28
2023-02-11T11:22:51.842Z,2.28
2023-02-11T11:25:27.343Z,2.30
2023-02-11T11:27:57.273Z,2.45
2023-02-11T11:30:27.976Z,2.42
2023-02-11T11:32:55.258Z,2.70
2023-02-11T11:35:30.773Z,2.17
2023-02-11T11:38:02.231Z,2.05
2023-02-11T11:40:44.554Z,1.77
2023-02-11T11:43:14.484Z,2.10
2023-02-11T11:46:03.021Z,2.30
2023-02-11T11:48:41.599Z,2.17
2023-02-11T11:51:20.909Z,2.20
2023-02-11T11:54:07.351Z,2.67
2023-02-11T11:56:36.309Z,2.13
2023-02-11T11:59:18.536Z,2.33
2023-02-11T12:02:14.204Z,2.53
2023-02-11T12:04:43.557Z,2.22
2023-02-11T12:07:24.784Z,1.70
2023-02-11T12:10:11.348Z,1.90
2023-02-11T12:12:47.006Z,2.15
2023-02-11T12:15:25.835Z,2.45
2023-02-11T12:18:12.504Z,2.30
2023-02-11T12:20:54.424Z,2.00
2023-02-11T12:24:02.242Z,2.20
2023-02-11T12:26:36.434Z,1.42
2023-02-11T12:29:28.262Z,1.85
2023-02-11T12:32:32.306Z,4.40
2023-02-11T12:35:11.514Z,2.50
2023-02-11T12:38:08.386Z,2.20
2023-02-11T12:40:45.517Z,3.17
2023-02-11T12:43:29.668Z,4.70
2023-02-11T12:46:15.120Z,3.00
2023-02-11T12:49:01.728Z,2.45
2023-02-11T12:51:53.522Z,4.03
2023-02-11T12:54:33.833Z,3.45
2023-02-11T12:57:17.073Z,2.92
2023-02-11T12:59:55.373Z,3.20
2023-02-11T13:02:40.936Z,3.28
2023-02-11T13:05:16.645Z,3.40
2023-02-11T13:07:46.782Z,4.70
2023-02-11T13:10:34.355Z,6.32
2023-02-11T13:13:19.511Z,3.70
2023-02-11T13:15:50.422Z,3.63
2023-02-11T13:18:55.965Z,3.58
2023-02-11T13:21:29.746Z,3.80
2023-02-11T13:24:05.721Z,3.10
2023-02-11T13:26:54.468Z,3.55
2023-02-11T13:29:36.219Z,3.85
2023-02-11T13:32:14.581Z,4.35
2023-02-11T13:34:44.130Z,3.13
2023-02-11T13:37:36.486Z,4.32
2023-02-11T13:42:51.626Z,3.17
2023-02-11T13:45:39.785Z,4.68
2023-02-11T13:48:45.842Z,4.07
2023-02-11T13:51:18.088Z,5.18
2023-02-11T13:53:59.266Z,3.97
2023-02-11T13:56:37.384Z,5.20
2023-02-11T13:59:33.533Z,3.55
2023-02-11T14:02:23.247Z,3.03
2023-02-11T14:05:28.217Z,4.35
2023-02-11T14:08:31.809Z,3.67
2023-02-11T14:10:59.696Z,3.65
2023-02-11T14:13:37.607Z,3.70
2023-02-11T14:16:10.114Z,4.13
2023-02-11T14:18:47.078Z,3.88
2023-02-11T14:21:49.094Z,5.40
2023-02-11T14:24:28.129Z,3.28
2023-02-11T14:27:24.468Z,2.17
2023-02-11T14:30:34.196Z,2.58
2023-02-11T14:33:16.355Z,2.53
2023-02-11T14:35:43.150Z,3.25
2023-02-11T14:38:57.761Z,3.25
2023-02-11T14:41:30.096Z,2.97
2023-02-11T14:43:59.821Z,2.30
2023-02-11T14:46:27.860Z,3.35
2023-02-11T14:48:58.047Z,2.92
2023-02-11T14:51:27.346Z,3.35
2023-02-11T14:53:59.402Z,3.35
2023-02-11T14:58:55.408Z,2.50
2023-02-11T15:01:35.496Z,5.47
2023-02-11T15:04:04.616Z,3.20
2023-02-11T15:06:39.718Z,2.83
2023-02-11T15:09:18.625Z,2.83
2023-02-11T15:11:49.148Z,3.33
2023-02-11T15:14:27.750Z,3.70
2023-02-11T15:16:57.711Z,4.00
2023-02-11T15:19:34.660Z,4.25
2023-02-11T15:22:15.704Z,3.15
2023-02-11T15:24:42.664Z,3.17
2023-02-11T15:27:14.649Z,3.38
2023-02-11T15:32:09.563Z,2.53
2023-02-11T15:34:37.081Z,2.20
2023-02-11T15:37:05.243Z,2.40
2023-02-11T15:39:41.289Z,2.35
2023-02-11T15:42:28.281Z,2.50
2023-02-11T15:45:15.174Z,3.47
2023-02-11T15:48:12.424Z,2.05
2023-02-11T15:50:44.067Z,2.40
2023-02-11T15:53:27.414Z,1.80
2023-02-11T15:56:04.405Z,2.42
2023-02-11T15:58:37.020Z,2.00
2023-02-11T16:01:03.868Z,1.90
2023-02-11T16:03:33.849Z,2.58
2023-02-11T16:06:25.226Z,1.83
2023-02-11T16:09:08.692Z,2.00
2023-02-11T16:11:39.333Z,2.97
2023-02-11T16:14:20.762Z,2.22
2023-02-11T16:16:51.576Z,2.40
2023-02-11T16:19:25.376Z,1.90
2023-02-11T16:21:53.987Z,1.92
2023-02-11T16:24:22.755Z,2.05
2023-02-11T16:26:51.299Z,2.33
2023-02-11T16:29:22.938Z,1.70
2023-02-11T16:31:50.490Z,2.20
2023-02-11T16:34:19.657Z,2.70
2023-02-11T16:36:47.330Z,2.00
2023-02-11T16:39:14.812Z,2.60
2023-02-11T16:41:41.510Z,1.83
2023-02-11T16:44:08.377Z,2.08
2023-02-11T16:46:36.877Z,3.35
2023-02-11T16:49:15.244Z,2.08
2023-02-11T16:51:48.596Z,1.88
2023-02-11T16:54:17.300Z,1.75
2023-02-11T16:56:44.235Z,2.22
2023-02-11T16:59:11.299Z,1.70
2023-02-11T17:01:45.906Z,1.77
2023-02-11T17:04:21.196Z,2.35
2023-02-11T17:06:50.732Z,1.77
2023-02-11T17:09:22.717Z,1.63
2023-02-11T17:14:16.556Z,2.00
2023-02-11T17:16:43.936Z,2.42
2023-02-11T17:19:16.821Z,1.75
2023-02-11T17:21:44.742Z,2.45
2023-02-11T17:24:11.587Z,2.03
2023-02-11T17:26:39.112Z,2.03
2023-02-11T17:29:07.424Z,2.35
2023-02-11T17:31:34.293Z,1.85
2023-02-11T17:34:01.010Z,2.50
2023-02-11T17:36:31.289Z,2.38
2023-02-11T17:38:58.764Z,2.72
2023-02-11T17:41:25.727Z,4.38
2023-02-11T17:43:52.502Z,5.30
2023-02-11T17:46:19.670Z,4.97
2023-02-11T17:48:46.867Z,6.80
2023-02-11T17:51:28.332Z,6.57
2023-02-11T17:53:57.854Z,5.45
2023-02-11T17:56:24.769Z,6.13
2023-02-11T17:58:52.551Z,5.60
2023-02-11T18:01:20.204Z,7.47
2023-02-11T18:03:47.102Z,6.13
2023-02-11T18:06:13.654Z,7.15
2023-02-11T18:08:41.825Z,7.07
2023-02-11T18:11:12.943Z,8.40
2023-02-11T18:13:39.490Z,8.83
2023-02-11T18:16:08.559Z,12.93
2023-02-11T18:18:35.262Z,9.05
2023-02-11T18:21:04.027Z,11.90
2023-02-11T18:23:30.749Z,10.80
2023-02-11T18:25:57.375Z,16.95
2023-02-11T18:28:24.107Z,15.35
2023-02-11T18:30:58.201Z,13.32
2023-02-11T18:33:24.960Z,19.15
2023-02-11T18:35:51.979Z,16.67
2023-02-11T18:38:20.963Z,15.60
2023-02-11T18:40:52.016Z,14.65
2023-02-11T18:43:19.935Z,14.25
2023-02-11T18:45:48.551Z,13.50
2023-02-11T18:48:17.817Z,13.82
2023-02-11T18:50:45.873Z,14.10
2023-02-11T18:53:13.398Z,11.02
2023-02-11T18:55:54.034Z,13.20
2023-02-11T18:58:23.931Z,11.18
2023-02-11T19:00:50.852Z,11.57
2023-02-11T19:03:19.861Z,11.68
2023-02-11T19:05:48.743Z,10.82
2023-02-11T19:08:17.608Z,12.18
2023-02-11T19:10:55.382Z,12.40
2023-02-11T19:13:22.025Z,12.60
2023-02-11T19:15:48.694Z,12.40
2023-02-11T19:18:18.091Z,15.07
2023-02-11T19:20:45.518Z,18.02
2023-02-11T19:23:12.135Z,10.85
2023-02-11T19:25:45.822Z,15.57
2023-02-11T19:28:18.891Z,12.88
2023-02-11T19:30:45.535Z,12.15
2023-02-11T19:33:12.111Z,12.15
2023-02-11T19:35:38.768Z,11.02
2023-02-11T19:38:06.873Z,11.35
2023-02-11T19:40:35.836Z,13.52
2023-02-11T19:43:07.125Z,11.77
2023-02-11T19:45:37.181Z,16.00
2023-02-11T19:48:05.266Z,11.15
2023-02-11T19:50:31.935Z,13.13
2023-02-11T19:52:58.912Z,14.02
2023-02-11T19:55:25.613Z,13.02
2023-02-11T19:57:52.527Z,11.27
2023-02-11T20:00:30.956Z,15.32
2023-02-11T20:02:58.910Z,13.32
2023-02-11T20:05:25.745Z,11.73
2023-02-11T20:07:52.318Z,13.65
2023-02-11T20:10:19.323Z,11.05
2023-02-11T20:12:47.958Z,11.98
2023-02-11T20:15:14.652Z,12.30
2023-02-11T20:17:41.253Z,16.20
2023-02-11T20:20:09.394Z,12.45
2023-02-11T20:22:36.243Z,11.80
2023-02-11T20:25:03.387Z,14.90
2023-02-11T20:27:32.171Z,14.52
2023-02-11T20:29:58.840Z,13.80
2023-02-11T20:32:27.506Z,11.77
2023-02-11T23:10:12.157Z,11.57
2023-02-11T23:12:38.794Z,9.80
2023-02-11T23:15:05.539Z,8.80
2023-02-11T23:17:32.107Z,10.98
2023-02-11T23:19:58.670Z,10.27
2023-02-11T23:22:25.221Z,19.25
2023-02-11T23:24:51.813Z,9.75
2023-02-11T23:27:18.491Z,9.63
2023-02-11T23:29:45.353Z,10.30
2023-02-11T23:32:12.114Z,9.35
2023-02-11T23:34:38.890Z,13.13
2023-02-11T23:37:05.507Z,10.48
2023-02-11T23:39:32.038Z,10.57
2023-02-11T23:41:59.570Z,10.30
2023-02-11T23:44:27.197Z,11.30
2023-02-11T23:46:53.968Z,10.73
2023-02-11T23:49:20.498Z,10.98
2023-02-11T23:51:47.199Z,13.82
2023-02-11T23:54:15.115Z,9.85
2023-02-11T23:56:44.824Z,9.73
2023-02-11T23:59:11.697Z,9.85
